Time;durP1;ratioP1;P1;durP2;ratioP2;P2;SDS_P1;SDS_P2;PMS_P1;PMS_P2;Temp;Humidity;BMP_temperature;BMP_pressure;BME280_temperature;BME280_humidity;BME280_pressure;Samples;Min_cycle;Max_cycle;Signal;HPM_P1;HPM_P2
2024/04/07 00:01:31;;;;;;;4.35;2.50;;;;;;;20.35;59.56;99695.13;5094675;28;20173;-25
2024/04/07 00:04:00;;;;;;;5.35;2.80;;;;;;;20.44;59.25;99715.16;5094991;28;20108;-26
2024/04/07 00:06:29;;;;;;;4.47;2.65;;;;;;;20.56;58.79;99720.28;5094688;28;20525;-26
2024/04/07 00:08:55;;;;;;;4.70;2.80;;;;;;;20.59;60.04;99722.44;5094930;28;20034;-26
2024/04/07 00:11:20;;;;;;;7.53;2.90;;;;;;;20.54;60.60;99720.53;5094823;28;20028;-26
2024/04/07 00:13:46;;;;;;;6.13;2.63;;;;;;;20.60;59.27;99716.81;5094618;28;20090;-26
2024/04/07 00:16:12;;;;;;;4.85;2.70;;;;;;;20.52;59.23;99720.00;5094265;28;20169;-26
2024/04/07 00:18:38;;;;;;;8.20;2.92;;;;;;;20.66;58.60;99715.72;5094567;28;20208;-26
2024/04/07 00:21:04;;;;;;;5.57;2.72;;;;;;;20.51;59.22;99723.81;5094530;28;20035;-26
2024/04/07 00:23:31;;;;;;;6.55;2.75;;;;;;;20.42;59.40;99709.19;5094238;28;20480;-26
2024/04/07 00:25:56;;;;;;;5.78;2.70;;;;;;;20.52;58.96;99720.00;5094527;28;20028;-26
2024/04/07 00:28:23;;;;;;;5.65;2.50;;;;;;;20.59;58.80;99717.03;5093757;28;20114;-26
2024/04/07 00:30:49;;;;;;;3.40;2.50;;;;;;;20.40;60.33;99714.06;5094117;28;20047;-26
2024/04/07 00:33:15;;;;;;;6.72;2.90;;;;;;;20.31;60.91;99720.00;5094333;28;20024;-27
2024/04/07 00:35:41;;;;;;;5.18;3.08;;;;;;;19.83;63.63;99726.63;5093792;28;20491;-25
2024/04/07 00:38:06;;;;;;;8.15;2.90;;;;;;;18.88;67.91;99738.25;5093924;28;21382;-26
2024/04/07 00:40:32;;;;;;;6.85;2.80;;;;;;;18.22;70.04;99736.56;5094109;28;20031;-26
2024/04/07 00:42:57;;;;;;;7.32;2.80;;;;;;;18.59;68.31;99732.31;5074252;28;20040;-25
2024/04/07 00:45:23;;;;;;;3.53;2.60;;;;;;;18.49;69.30;99735.75;5073593;28;20085;-26
2024/04/07 00:47:48;;;;;;;3.60;2.30;;;;;;;18.27;68.18;99730.41;5073476;28;20067;-25
2024/04/07 00:50:18;;;;;;;4.20;2.20;;;;;;;17.67;69.83;99732.13;5073789;28;20032;-26
2024/04/07 00:52:43;;;;;;;;;;;;;;;17.74;70.13;99727.38;5073791;28;20074;-26
2024/04/07 00:55:10;;;;;;;4.78;2.60;;;;;;;18.09;69.03;99729.69;5073591;28;19916;-26
2024/04/07 00:57:36;;;;;;;3.97;2.40;;;;;;;17.35;72.34;99733.63;5072433;28;20112;-26
2024/04/07 01:00:03;;;;;;;4.18;2.40;;;;;;;17.69;70.77;99721.97;5073596;28;20423;-26
2024/04/07 01:02:29;;;;;;;3.75;2.40;;;;;;;17.90;69.78;99731.91;5073210;28;20051;-26
2024/04/07 01:04:54;;;;;;;6.50;2.40;;;;;;;17.29;72.20;99740.00;5073224;28;20170;-26
2024/04/07 01:07:21;;;;;;;4.07;2.40;;;;;;;17.71;70.64;99736.78;5073079;28;20470;-26
2024/04/07 01:09:46;;;;;;;3.28;2.00;;;;;;;17.25;72.85;99740.72;5073194;28;20028;-26
2024/04/07 01:12:15;;;;;;;4.20;2.25;;;;;;;16.84;74.60;99749.00;5073163;28;20025;-26
2024/04/07 01:14:40;;;;;;;3.70;2.10;;;;;;;16.64;75.42;99748.63;5082420;28;20125;-25
2024/04/07 01:17:06;;;;;;;3.53;2.10;;;;;;;16.44;77.09;99757.16;5092955;28;20491;-26
2024/04/07 01:19:32;;;;;;;3.85;2.45;;;;;;;16.46;78.05;99742.44;5093321;28;20051;-26
2024/04/07 01:21:58;;;;;;;2.78;2.05;;;;;;;16.36;78.42;99761.06;5093083;28;20035;-25
2024/04/07 01:24:24;;;;;;;3.42;2.20;;;;;;;16.74;76.79;99751.50;5093176;28;20028;-26
2024/04/07 01:26:49;;;;;;;2.47;2.20;;;;;;;16.74;76.32;99760.38;5092944;28;20028;-26
2024/04/07 01:29:14;;;;;;;3.75;1.90;;;;;;;16.63;75.42;99774.69;5093100;28;20035;-26
2024/04/07 01:31:40;;;;;;;4.60;2.20;;;;;;;17.06;74.65;99781.34;5093074;28;20077;-26
2024/04/07 01:34:05;;;;;;;3.38;2.10;;;;;;;17.19;74.66;99790.94;5091676;28;20023;-26
2024/04/07 01:36:31;;;;;;;3.17;2.13;;;;;;;17.15;74.47;99789.78;5093049;28;20032;-26
2024/04/07 01:38:56;;;;;;;3.83;2.20;;;;;;;17.51;73.40;99780.38;5093185;28;20136;-26
2024/04/07 01:41:22;;;;;;;5.30;2.40;;;;;;;16.77;76.78;99781.38;5092353;28;20031;-26
2024/04/07 01:43:47;;;;;;;3.67;2.25;;;;;;;16.59;77.87;99797.72;5092607;28;20024;-26
2024/04/07 01:46:13;;;;;;;3.70;2.20;;;;;;;16.24;79.57;99798.72;5092849;28;20030;-25
2024/04/07 01:48:40;;;;;;;5.53;2.30;;;;;;;16.34;80.19;99798.88;5092864;28;20201;-25
2024/04/07 01:51:06;;;;;;;5.03;2.53;;;;;;;16.70;78.12;99782.59;5092533;28;20516;-25
2024/04/07 01:53:31;;;;;;;3.00;2.50;;;;;;;16.26;79.50;99771.59;5092525;28;20111;-25
2024/04/07 01:55:57;;;;;;;5.20;2.70;;;;;;;16.38;79.51;99796.53;5092268;28;20032;-25
2024/04/07 01:58:23;;;;;;;3.30;2.40;;;;;;;16.06;81.06;99793.50;5092624;28;20103;-25
2024/04/07 02:00:48;;;;;;;5.80;2.45;;;;;;;15.59;84.14;99792.53;5092841;28;20136;-26
2024/04/07 02:03:13;;;;;;;5.38;2.70;;;;;;;15.21;85.93;99801.88;5092354;28;20464;-25
2024/04/07 02:05:39;;;;;;;5.00;2.70;;;;;;;15.38;86.51;99825.28;5092563;28;20434;-25
2024/04/07 02:08:05;;;;;;;3.30;2.78;;;;;;;15.66;85.74;99816.53;5091943;28;20432;-25
2024/04/07 02:10:30;;;;;;;4.57;2.90;;;;;;;16.07;83.27;99821.97;5091827;28;20186;-25
2024/04/07 02:12:56;;;;;;;4.22;2.63;;;;;;;15.88;83.42;99821.31;5092421;28;20069;-25
2024/04/07 02:15:22;;;;;;;3.67;2.75;;;;;;;15.89;82.81;99834.50;5092059;28;20041;-26
2024/04/07 02:17:48;;;;;;;4.00;2.60;;;;;;;15.53;84.96;99833.69;5092319;28;20024;-25
2024/04/07 02:20:16;;;;;;;5.45;2.63;;;;;;;15.37;85.59;99800.34;5092174;28;20028;-26
2024/04/07 02:22:42;;;;;;;3.70;2.72;;;;;;;15.55;84.39;99820.03;5091892;28;20016;-25
2024/04/07 02:25:07;;;;;;;5.28;3.00;;;;;;;15.63;84.85;99831.25;5092050;28;20024;-26
2024/04/07 02:27:32;;;;;;;6.03;3.17;;;;;;;15.55;85.37;99820.84;5091837;28;20031;-26
2024/04/07 02:29:58;;;;;;;4.05;2.88;;;;;;;15.56;84.76;99811.75;5091850;28;20020;-25
2024/04/07 02:32:23;;;;;;;4.78;3.28;;;;;;;15.73;83.41;99838.72;5091864;28;20012;-25
2024/04/07 02:34:49;;;;;;;4.85;3.25;;;;;;;16.08;81.39;99850.44;5091725;28;20016;-25
2024/04/07 02:37:14;;;;;;;5.28;3.50;;;;;;;16.17;81.01;99854.41;5091623;28;20498;-25
2024/04/07 02:39:39;;;;;;;5.47;3.45;;;;;;;15.94;81.32;99837.28;5091446;28;20135;-28
2024/04/07 02:42:05;;;;;;;5.50;3.30;;;;;;;15.97;81.69;99855.63;5091390;28;20012;-27
2024/04/07 02:49:58;;;;;;;4.60;3.30;;;;;;;15.81;81.23;99846.41;5091611;28;20046;-26
2024/04/07 02:52:24;;;;;;;5.10;3.50;;;;;;;15.79;82.14;99879.91;5091530;28;20016;-26
2024/04/07 02:54:49;;;;;;;6.82;3.20;;;;;;;15.72;83.33;99898.75;5091205;28;20027;-25
2024/04/07 02:57:14;;;;;;;6.03;3.08;;;;;;;15.98;81.65;99875.22;5091076;28;20103;-26
2024/04/07 02:59:40;;;;;;;6.07;3.00;;;;;;;15.97;81.20;99861.00;5091412;28;20027;-26
2024/04/07 03:02:05;;;;;;;5.63;3.20;;;;;;;16.28;81.17;99855.41;5090720;28;20476;-26
2024/04/07 03:04:31;;;;;;;4.38;3.17;;;;;;;16.47;79.65;99847.97;5090713;28;20024;-26
2024/04/07 03:07:00;;;;;;;4.05;3.15;;;;;;;16.27;80.63;99853.78;5091030;28;20123;-26
2024/04/07 03:09:26;;;;;;;5.10;3.38;;;;;;;16.18;81.80;99854.16;5091102;28;20089;-25
2024/04/07 03:11:51;;;;;;;4.47;3.00;;;;;;;16.00;82.45;99857.00;5091244;28;20375;-25
2024/04/07 03:14:16;;;;;;;4.85;3.20;;;;;;;15.94;82.92;99857.97;5091074;28;20023;-27
2024/04/07 03:16:42;;;;;;;5.88;3.40;;;;;;;16.07;82.19;99867.59;5091134;28;20031;-26
2024/04/07 03:19:07;;;;;;;4.22;3.30;;;;;;;16.11;81.99;99858.03;5089761;28;20047;-27
2024/04/07 03:21:33;;;;;;;5.03;3.28;;;;;;;16.10;82.58;99859.88;5090397;28;20115;-25
2024/04/07 03:23:58;;;;;;;5.40;3.10;;;;;;;15.99;82.67;99852.69;5073010;28;20020;-25
2024/04/07 03:26:23;;;;;;;4.85;3.17;;;;;;;15.72;84.11;99873.81;5091003;28;20020;-25
2024/04/07 03:28:49;;;;;;;3.72;3.33;;;;;;;15.81;83.85;99861.69;5087957;28;20107;-26
2024/04/07 03:31:15;;;;;;;4.60;3.38;;;;;;;16.25;81.64;99850.53;5070564;28;20066;-26
2024/04/07 03:33:41;;;;;;;5.05;3.60;;;;;;;16.11;81.25;99855.34;5086762;28;20024;-25
2024/04/07 03:36:06;;;;;;;4.85;3.25;;;;;;;15.89;81.54;99849.78;5090812;28;20042;-25
2024/04/07 03:38:32;;;;;;;5.07;3.60;;;;;;;16.20;81.13;99860.13;5090402;28;20377;-25
2024/04/07 03:41:02;;;;;;;5.30;3.65;;;;;;;16.41;79.52;99857.81;5090430;28;20024;-25
2024/04/07 03:43:27;;;;;;;4.82;3.55;;;;;;;16.09;81.68;99854.75;5090571;28;20019;-26
2024/04/07 03:46:02;;;;;;;5.18;3.92;;;;;;;16.02;81.30;99849.53;5090494;28;20479;-26
2024/04/07 03:48:29;;;;;;;4.38;3.55;;;;;;;16.13;81.29;99858.63;5090862;28;20035;-26
2024/04/07 03:50:56;;;;;;;4.78;3.63;;;;;;;16.34;80.34;99859.84;5091209;28;20035;-26
2024/04/07 03:53:22;;;;;;;4.90;3.88;;;;;;;16.33;79.79;99853.63;5090819;28;20016;-26
2024/04/07 03:55:47;;;;;;;5.05;3.55;;;;;;;16.77;77.17;99859.31;5090608;28;20016;-25
2024/04/07 03:58:13;;;;;;;5.70;3.60;;;;;;;16.67;77.80;99858.31;5090949;28;20054;-26
2024/04/07 04:00:38;;;;;;;4.80;3.55;;;;;;;16.37;78.96;99854.81;5090805;28;20465;-26
2024/04/07 04:03:04;;;;;;;4.65;3.50;;;;;;;16.31;80.10;99842.31;5090790;28;20026;-26
2024/04/07 04:05:29;;;;;;;5.30;3.50;;;;;;;16.71;77.85;99846.81;5090934;28;20020;-26
2024/04/07 04:07:55;;;;;;;5.35;3.60;;;;;;;16.90;76.50;99854.72;5091018;28;20063;-26
2024/04/07 04:10:20;;;;;;;5.53;3.00;;;;;;;16.89;75.49;99848.53;5091066;28;20118;-26
2024/04/07 04:12:46;;;;;;;4.97;3.10;;;;;;;17.20;75.74;99852.53;5090782;28;20437;-25
2024/04/07 04:15:11;;;;;;;4.07;3.03;;;;;;;17.72;72.58;99848.72;5090681;28;20111;-25
2024/04/07 04:17:36;;;;;;;4.45;3.00;;;;;;;18.07;71.13;99850.31;5089486;28;20036;-25
2024/04/07 04:20:03;;;;;;;4.00;2.95;;;;;;;18.29;70.36;99850.28;5090991;28;20103;-25
2024/04/07 04:22:28;;;;;;;5.05;3.20;;;;;;;18.39;69.50;99846.09;5090667;28;20524;-26
2024/04/07 04:24:55;;;;;;;5.97;3.70;;;;;;;18.52;69.27;99856.47;5090668;28;20107;-26
2024/04/07 04:27:21;;;;;;;4.72;2.70;;;;;;;19.02;66.88;99863.47;5091025;28;20031;-25
2024/04/07 04:29:47;;;;;;;6.15;2.60;;;;;;;19.34;65.69;99855.38;5090930;28;20028;-26
2024/04/07 04:32:12;;;;;;;10.95;6.38;;;;;;;19.67;64.98;99860.72;5091445;28;20027;-26
2024/04/07 04:34:38;;;;;;;17.10;10.88;;;;;;;20.05;63.74;99856.09;5094873;28;20024;-26
2024/04/07 04:37:04;;;;;;;6.47;4.30;;;;;;;20.36;62.33;99861.63;5094285;28;20020;-27
2024/04/07 04:39:29;;;;;;;5.88;3.95;;;;;;;20.75;60.85;99870.09;5094251;28;20127;-26
2024/04/07 04:41:55;;;;;;;4.25;2.78;;;;;;;21.15;58.98;99873.97;5094439;28;20107;-27
2024/04/07 04:44:21;;;;;;;4.70;2.63;;;;;;;21.24;58.42;99868.78;5094392;28;20020;-26
2024/04/07 04:46:48;;;;;;;4.15;2.88;;;;;;;21.73;54.84;99875.56;5094439;28;20019;-26
2024/04/07 04:49:15;;;;;;;5.60;2.88;;;;;;;21.66;55.29;99879.34;5094371;28;20031;-26
2024/04/07 04:51:40;;;;;;;4.65;2.63;;;;;;;21.96;55.11;99874.13;5094196;28;20122;-27
2024/04/07 04:54:06;;;;;;;5.70;2.83;;;;;;;22.29;54.02;99888.94;5094222;28;20107;-27
2024/04/07 04:56:32;;;;;;;4.13;3.03;;;;;;;22.69;54.19;99891.72;5094717;28;20103;-26
2024/04/07 04:58:58;;;;;;;4.03;2.85;;;;;;;22.64;54.15;99879.81;5094106;28;20464;-26
2024/04/07 05:01:24;;;;;;;5.40;2.70;;;;;;;22.96;53.52;99894.81;5093997;28;20020;-26
2024/04/07 05:03:50;;;;;;;6.28;2.70;;;;;;;23.27;52.41;99904.66;5094214;28;20016;-26
2024/04/07 05:06:16;;;;;;;5.50;2.40;;;;;;;23.55;50.93;99901.16;5093826;28;20675;-26
2024/04/07 05:08:43;;;;;;;6.50;2.70;;;;;;;23.29;50.60;99911.41;5094219;28;20020;-26
2024/04/07 05:11:09;;;;;;;5.88;2.63;;;;;;;22.71;51.23;99917.47;5093769;28;20089;-25
2024/04/07 05:13:35;;;;;;;6.18;2.45;;;;;;;22.53;52.58;99918.91;5076804;28;20457;-26
2024/04/07 05:16:02;;;;;;;3.15;2.33;;;;;;;22.65;52.04;99918.59;5086266;28;20016;-27
2024/04/07 05:18:28;;;;;;;4.55;2.40;;;;;;;23.16;51.39;99928.34;5093928;28;20016;-26
2024/04/07 05:20:55;;;;;;;12.35;6.40;;;;;;;23.36;50.89;99927.38;5092349;28;20416;-26
2024/04/07 05:23:21;;;;;;;5.93;3.75;;;;;;;23.80;49.22;99946.31;5092864;28;20032;-26
2024/04/07 05:25:46;;;;;;;6.43;3.95;;;;;;;23.27;50.00;99939.94;5093620;28;20028;-27
2024/04/07 05:28:11;;;;;;;7.35;4.18;;;;;;;23.00;51.14;99943.91;5093089;28;20420;-27
2024/04/07 05:30:37;;;;;;;5.90;3.70;;;;;;;23.19;50.29;99938.66;5093085;28;20095;-26
2024/04/07 05:33:06;;;;;;;8.88;3.70;;;;;;;23.05;50.88;99953.94;5093306;28;20064;-27
2024/04/07 05:35:35;;;;;;;3.83;3.20;;;;;;;22.43;52.36;99948.81;5093090;28;20081;-27
2024/04/07 05:38:01;;;;;;;5.22;3.58;;;;;;;21.48;54.50;99948.41;5093020;28;20047;-26
2024/04/07 05:40:27;;;;;;;4.82;3.60;;;;;;;21.64;55.93;99941.06;5093045;28;20463;-26
2024/04/07 05:42:53;;;;;;;4.38;3.40;;;;;;;22.39;53.49;99951.25;5093434;28;20020;-26
2024/04/07 05:45:18;;;;;;;4.80;3.35;;;;;;;22.37;53.06;99947.19;5092643;28;20024;-27
2024/04/07 05:47:51;;;;;;;4.85;3.25;;;;;;;22.04;53.34;99950.22;5092116;28;20039;-26
2024/04/07 05:50:17;;;;;;;7.47;3.15;;;;;;;21.95;54.32;99956.47;5092703;28;20023;-26
2024/04/07 05:52:43;;;;;;;5.65;3.15;;;;;;;22.02;54.41;99962.44;5092584;28;20016;-26
2024/04/07 05:55:09;;;;;;;8.80;4.88;;;;;;;22.71;53.01;99962.78;5092529;28;20027;-27
2024/04/07 05:57:36;;;;;;;8.63;4.60;;;;;;;22.69;51.72;99959.53;5092689;28;20520;-28
2024/04/07 06:00:03;;;;;;;6.53;3.17;;;;;;;23.66;49.77;99956.16;5089618;28;20028;-28
2024/04/07 06:02:28;;;;;;;5.45;2.90;;;;;;;24.39;48.37;99957.09;5092146;28;20332;-26
2024/04/07 06:04:53;;;;;;;6.78;3.30;;;;;;;25.13;47.62;99953.94;5092100;28;20026;-26
2024/04/07 06:07:19;;;;;;;9.02;2.80;;;;;;;25.98;46.10;99968.38;5091799;28;20043;-26
2024/04/07 06:09:47;;;;;;;8.43;4.32;;;;;;;26.22;45.93;99970.16;5092159;28;20539;-27
2024/04/07 06:12:13;;;;;;;4.05;2.65;;;;;;;26.65;42.88;99951.53;5087855;28;20020;-28
2024/04/07 06:14:38;;;;;;;6.35;3.42;;;;;;;27.27;41.79;99975.56;5087331;28;20028;-26
2024/04/07 06:17:04;;;;;;;5.30;3.08;;;;;;;27.80;40.58;99965.78;5091673;28;20085;-29
2024/04/07 06:19:29;;;;;;;7.13;2.90;;;;;;;28.26;39.35;99964.56;5092615;28;20027;-26
2024/04/07 06:21:54;;;;;;;3.88;2.60;;;;;;;28.44;39.05;99976.41;5091682;28;20028;-26
2024/04/07 06:24:20;;;;;;;4.65;2.40;;;;;;;28.73;38.09;99979.69;5092209;28;20542;-27
2024/04/07 06:26:45;;;;;;;4.50;2.70;;;;;;;28.84;37.71;99970.03;5090729;28;20032;-26
2024/04/07 06:29:11;;;;;;;5.30;3.05;;;;;;;29.24;36.92;99978.97;5092034;28;20028;-27
2024/04/07 06:31:36;;;;;;;4.15;2.38;;;;;;;28.20;37.64;99979.53;5092188;28;20388;-40
2024/04/07 06:34:03;;;;;;;5.00;2.33;;;;;;;28.01;38.63;99985.22;5092408;28;20089;-37
2024/04/07 06:36:29;;;;;;;4.68;2.25;;;;;;;28.26;38.18;99982.94;5092310;28;20039;-37
2024/04/07 06:38:54;;;;;;;4.95;2.50;;;;;;;28.45;37.85;99988.94;5091863;28;20059;-39
2024/04/07 06:41:19;;;;;;;5.97;2.40;;;;;;;29.34;36.20;99990.72;5091715;28;20032;-39
2024/04/07 06:43:45;;;;;;;3.17;2.15;;;;;;;29.23;35.01;99993.78;5091948;28;20030;-39
2024/04/07 06:46:10;;;;;;;4.05;1.90;;;;;;;29.53;35.50;99984.88;5091645;28;20034;-42
2024/04/07 06:48:36;;;;;;;4.70;2.38;;;;;;;29.67;34.98;99996.47;5091905;28;20020;-39
2024/04/07 06:51:01;;;;;;;4.90;2.10;;;;;;;29.80;34.81;99992.78;5091891;28;20063;-42
2024/04/07 06:53:27;;;;;;;7.25;3.17;;;;;;;30.19;34.13;99988.09;5091741;28;20044;-38
2024/04/07 06:55:52;;;;;;;2.75;2.10;;;;;;;31.17;33.04;100007.28;5090813;28;20027;-39
2024/04/07 06:58:18;;;;;;;4.47;2.10;;;;;;;31.14;32.49;100004.41;5092118;28;20116;-39
2024/04/07 07:00:43;;;;;;;4.75;1.98;;;;;;;31.71;31.86;100005.69;5085898;28;20541;-41
2024/04/07 07:03:08;;;;;;;12.77;7.07;;;;;;;31.94;34.90;99990.38;5091480;28;20089;-40
2024/04/07 07:05:34;;;;;;;11.57;5.65;;;;;;;31.99;33.45;99985.78;5090784;28;20035;-39
2024/04/07 07:07:59;;;;;;;4.80;2.20;;;;;;;31.70;30.99;100006.81;5090900;28;20028;-37
2024/04/07 07:10:25;;;;;;;4.93;2.13;;;;;;;31.71;30.99;99997.44;5090728;28;20028;-37
2024/04/07 07:12:50;;;;;;;3.00;2.13;;;;;;;31.35;31.08;100002.44;5091161;28;20111;-38
2024/04/07 07:15:16;;;;;;;5.88;2.20;;;;;;;31.26;31.60;99996.22;5091506;28;20073;-39
2024/04/07 07:17:41;;;;;;;6.63;2.28;;;;;;;31.32;31.83;100005.88;5090946;28;20404;-39
2024/04/07 07:20:07;;;;;;;4.63;2.15;;;;;;;31.25;31.52;100004.81;5090984;28;20118;-39
2024/04/07 07:22:32;;;;;;;3.70;2.10;;;;;;;30.90;31.64;100003.13;5090940;28;20111;-37
2024/04/07 07:24:58;;;;;;;3.47;2.28;;;;;;;30.85;31.84;100006.03;5091271;28;20030;-40
2024/04/07 07:27:23;;;;;;;3.53;2.20;;;;;;;30.27;32.89;100007.63;5090895;28;20023;-36
2024/04/07 07:29:49;;;;;;;5.32;2.30;;;;;;;30.54;32.68;100007.22;5091568;28;20036;-39
2024/04/07 07:32:15;;;;;;;2.78;2.10;;;;;;;30.72;32.12;100007.09;5091115;28;20413;-41
2024/04/07 07:34:40;;;;;;;6.15;2.70;;;;;;;30.53;32.46;100000.09;5091217;28;20031;-37
2024/04/07 07:37:06;;;;;;;6.75;2.28;;;;;;;30.87;32.61;99998.28;5091269;28;20040;-42
2024/04/07 07:39:31;;;;;;;3.78;2.55;;;;;;;30.86;32.47;100002.16;5091083;28;20052;-40
2024/04/07 07:41:57;;;;;;;3.33;2.20;;;;;;;30.98;31.83;100007.75;5091213;28;20020;-38
2024/04/07 07:44:22;;;;;;;14.30;10.27;;;;;;;30.85;33.13;100006.03;5091016;28;20030;-39
2024/04/07 07:46:48;;;;;;;7.13;3.80;;;;;;;31.37;32.62;100004.84;5083363;28;20019;-40
2024/04/07 07:49:13;;;;;;;6.22;3.33;;;;;;;31.79;31.96;100009.50;5070851;28;20559;-38
2024/04/07 07:51:39;;;;;;;3.80;2.30;;;;;;;31.27;32.31;100008.81;5068734;28;20468;-38
2024/04/07 07:54:04;;;;;;;4.90;3.10;;;;;;;30.29;32.47;99994.38;5069961;28;20028;-42
2024/04/07 07:56:29;;;;;;;6.95;2.85;;;;;;;30.42;32.62;99998.06;5070101;28;20028;-38
2024/04/07 07:58:55;;;;;;;5.70;3.40;;;;;;;31.03;31.67;100005.94;5070210;28;20024;-41
2024/04/07 08:01:20;;;;;;;4.45;3.33;;;;;;;31.52;31.46;100004.25;5069985;28;20436;-39
2024/04/07 08:03:45;;;;;;;2.88;2.08;;;;;;;30.17;32.86;100006.84;5069392;28;20481;-40
2024/04/07 08:06:11;;;;;;;5.00;2.00;;;;;;;31.49;31.21;100007.69;5068784;28;20024;-41
2024/04/07 08:08:37;;;;;;;4.15;2.00;;;;;;;31.70;30.35;100010.41;5072329;28;20078;-39
2024/04/07 08:11:03;;;;;;;3.25;1.92;;;;;;;30.46;31.34;100001.75;5072546;28;20099;-40
2024/04/07 08:13:28;;;;;;;4.25;2.00;;;;;;;30.01;31.44;100006.59;5071387;28;20079;-37
2024/04/07 08:15:54;;;;;;;6.20;2.20;;;;;;;30.51;31.21;100005.13;5072428;28;20020;-39
2024/04/07 08:18:19;;;;;;;3.67;1.98;;;;;;;30.52;30.69;100004.00;5072768;28;20039;-39
2024/04/07 08:20:45;;;;;;;4.10;2.20;;;;;;;30.09;31.46;100002.19;5073587;28;20028;-40
2024/04/07 08:23:12;;;;;;;2.80;2.25;;;;;;;31.08;31.39;100008.50;5073374;28;20385;-38
2024/04/07 08:25:38;;;;;;;5.55;2.33;;;;;;;30.98;31.22;100002.25;5073419;28;20017;-38
2024/04/07 08:28:06;;;;;;;5.07;2.10;;;;;;;29.91;31.99;100006.13;5073469;28;20021;-37
2024/04/07 08:30:32;;;;;;;2.90;2.03;;;;;;;30.52;31.74;100005.91;5072111;28;20635;-36
2024/04/07 08:32:59;;;;;;;3.78;1.95;;;;;;;30.86;30.83;99998.59;5073468;28;20052;-40
2024/04/07 08:35:24;;;;;;;6.78;2.90;;;;;;;30.94;31.68;100003.28;5073876;28;20063;-40
2024/04/07 08:37:50;;;;;;;4.07;1.80;;;;;;;31.64;29.62;100005.44;5074062;28;20048;-38
2024/04/07 08:40:15;;;;;;;3.50;1.88;;;;;;;30.63;30.27;100009.88;5073574;28;20849;-37
2024/04/07 08:42:42;;;;;;;2.47;1.80;;;;;;;29.73;31.30;99984.22;5072723;28;20025;-37
2024/04/07 08:45:09;;;;;;;3.15;1.95;;;;;;;29.32;32.32;100001.19;5073618;28;20113;-40
2024/04/07 08:47:38;;;;;;;2.67;1.70;;;;;;;29.53;32.24;99991.19;5073472;28;20021;-38
2024/04/07 08:50:05;;;;;;;1.88;1.67;;;;;;;29.12;32.30;100000.69;5073670;28;20107;-38
2024/04/07 08:52:31;;;;;;;1.90;1.50;;;;;;;29.50;31.02;99988.28;5073339;28;20024;-37
2024/04/07 08:54:57;;;;;;;4.00;1.50;;;;;;;28.92;30.59;99990.34;5073522;28;20489;-41
2024/04/07 08:57:23;;;;;;;2.13;1.60;;;;;;;28.00;32.46;99993.75;5073206;28;20032;-39
2024/04/07 08:59:52;;;;;;;2.30;1.67;;;;;;;28.07;33.00;99994.09;5073183;28;20025;-38
2024/04/07 09:02:18;;;;;;;1.70;1.40;;;;;;;27.56;34.20;99985.25;5073113;28;20021;-39
2024/04/07 09:04:44;;;;;;;1.77;1.30;;;;;;;28.00;33.33;99980.06;5073073;28;20060;-39
2024/04/07 09:07:13;;;;;;;2.17;1.48;;;;;;;28.02;32.90;99989.56;5072760;28;20052;-40
2024/04/07 09:09:39;;;;;;;1.77;1.27;;;;;;;27.89;32.67;99993.19;5073129;28;20016;-37
2024/04/07 09:12:08;;;;;;;2.50;1.50;;;;;;;27.59;33.06;99979.19;5073022;28;20020;-40
2024/04/07 09:14:34;;;;;;;2.95;1.30;;;;;;;27.73;33.33;99989.22;5073206;28;20416;-41
2024/04/07 09:17:09;;;;;;;2.08;1.50;;;;;;;27.26;33.79;100003.19;5072805;28;20028;-38
2024/04/07 09:19:36;;;;;;;3.55;1.80;;;;;;;27.05;33.84;100002.81;5071840;28;20029;-38
2024/04/07 09:22:03;;;;;;;3.03;1.70;;;;;;;27.53;33.86;99988.63;5072736;28;20374;-41
2024/04/07 09:24:30;;;;;;;1.77;1.20;;;;;;;28.03;32.48;99999.41;5072890;28;20028;-38
2024/04/07 09:26:59;;;;;;;2.30;1.45;;;;;;;28.54;31.62;99989.00;5072790;28;20420;-36
2024/04/07 09:29:28;;;;;;;1.83;1.45;;;;;;;27.82;31.47;99996.34;5073405;28;20504;-39
2024/04/07 09:31:53;;;;;;;2.22;1.17;;;;;;;26.54;32.69;100001.97;5073411;28;20023;-39
2024/04/07 09:34:19;;;;;;;1.77;1.35;;;;;;;26.20;33.91;100002.34;5072744;28;20024;-39
2024/04/07 09:36:44;;;;;;;1.85;1.25;;;;;;;26.31;33.94;99998.31;5072613;28;20012;-39
2024/04/07 09:39:11;;;;;;;4.47;1.55;;;;;;;26.78;34.02;99996.28;5072520;28;20084;-39
2024/04/07 09:41:37;;;;;;;2.13;1.70;;;;;;;26.30;34.15;99997.50;5072732;28;20244;-39
2024/04/07 09:44:08;;;;;;;2.88;1.60;;;;;;;26.47;34.32;99996.91;5072712;28;20528;-40
2024/04/07 09:46:38;;;;;;;5.38;2.10;;;;;;;26.14;34.79;99991.53;5072452;28;20404;-37
2024/04/07 09:49:10;;;;;;;2.10;1.65;;;;;;;25.88;35.37;99980.25;5072353;28;20028;-38
2024/04/07 09:51:55;;;;;;;3.72;1.90;;;;;;;26.46;35.02;99981.63;5072488;28;20020;-39
2024/04/07 09:54:39;;;;;;;3.60;2.10;;;;;;;27.42;34.50;99973.59;5072241;28;20024;-39
2024/04/07 09:57:09;;;;;;;1.80;1.50;;;;;;;27.55;33.51;99978.19;5071934;28;20020;-38
2024/04/07 09:59:37;;;;;;;2.88;1.60;;;;;;;27.36;33.03;99989.31;5071977;28;20094;-39
2024/04/07 10:02:03;;;;;;;2.75;1.60;;;;;;;27.25;33.26;99990.66;5072056;28;20029;-38
2024/04/07 10:04:29;;;;;;;5.72;1.38;;;;;;;27.42;32.93;99976.34;5071858;28;20534;-37
2024/04/07 10:06:55;;;;;;;1.25;1.00;;;;;;;27.16;31.46;99985.09;5071744;28;20028;-37
2024/04/07 10:09:21;;;;;;;1.60;1.05;;;;;;;27.09;32.08;99987.44;5071632;28;20074;-39
2024/04/07 10:11:48;;;;;;;4.75;1.90;;;;;;;27.40;31.77;99979.38;5071391;28;20085;-39
2024/04/07 10:14:18;;;;;;;1.58;1.15;;;;;;;27.44;31.96;99966.69;5071674;28;20409;-40
2024/04/07 10:16:45;;;;;;;2.28;1.20;;;;;;;27.15;32.11;99969.00;5071569;28;20030;-39
2024/04/07 10:19:12;;;;;;;2.00;1.40;;;;;;;26.24;35.36;99985.09;5071635;28;20093;-39
2024/04/07 10:21:39;;;;;;;3.67;1.30;;;;;;;25.92;37.16;99992.22;5070365;28;20044;-40
2024/04/07 10:24:06;;;;;;;2.45;1.70;;;;;;;26.14;37.31;99990.72;5071426;28;20016;-41
2024/04/07 10:26:32;;;;;;;1.73;1.20;;;;;;;25.70;35.17;100000.19;5071217;28;20032;-38
2024/04/07 10:28:57;;;;;;;2.17;1.35;;;;;;;24.94;35.69;99995.59;5071795;28;20020;-38
2024/04/07 10:31:33;;;;;;;2.33;1.40;;;;;;;25.64;33.60;99994.00;5074171;28;20476;-42
2024/04/07 10:34:00;;;;;;;2.35;1.40;;;;;;;25.77;34.46;99989.72;5072525;28;20031;-37
2024/04/07 10:36:26;;;;;;;2.60;1.60;;;;;;;26.03;34.81;99992.84;5091842;28;20024;-40
2024/04/07 10:38:56;;;;;;;2.75;1.50;;;;;;;26.28;34.38;99980.63;5091652;28;20153;-39
2024/04/07 10:41:24;;;;;;;3.67;1.40;;;;;;;26.48;34.78;99984.91;5091810;28;20055;-38
2024/04/07 10:43:50;;;;;;;2.88;2.00;;;;;;;26.68;33.72;99991.06;5091848;28;20156;-37
2024/04/07 10:46:20;;;;;;;4.15;1.60;;;;;;;26.07;33.55;99996.59;5091661;28;20032;-40
2024/04/07 10:48:46;;;;;;;4.07;1.70;;;;;;;25.72;34.38;99998.81;5091919;28;20111;-39
2024/04/07 10:51:18;;;;;;;3.33;2.03;;;;;;;25.54;34.18;99988.75;5091513;28;20170;-41
2024/04/07 10:53:45;;;;;;;2.20;1.42;;;;;;;25.72;32.32;99982.44;5091298;28;20153;-40
2024/04/07 10:56:11;;;;;;;4.47;1.58;;;;;;;25.17;32.80;99985.75;5090885;28;20062;-39
2024/04/07 10:58:38;;;;;;;2.80;1.48;;;;;;;25.73;33.63;99972.34;5090988;28;20090;-36
2024/04/07 11:01:06;;;;;;;2.10;1.58;;;;;;;25.81;30.37;99979.03;5090814;28;20028;-41
2024/04/07 11:03:38;;;;;;;3.58;2.00;;;;;;;25.72;30.53;99973.44;5091023;28;20457;-40
2024/04/07 11:06:05;;;;;;;2.78;1.60;;;;;;;26.09;29.81;99969.81;5090819;28;20042;-38
2024/04/07 11:08:31;;;;;;;3.17;1.33;;;;;;;26.63;28.67;99967.41;5090763;28;20031;-41
2024/04/07 11:10:57;;;;;;;2.15;1.50;;;;;;;27.51;28.79;99960.78;5084202;28;20016;-43
2024/04/07 11:13:23;;;;;;;5.15;1.60;;;;;;;27.56;30.31;99966.13;5078261;28;20016;-39
2024/04/07 11:15:50;;;;;;;4.35;1.50;;;;;;;27.26;31.06;99979.44;5082098;28;20020;-42
2024/04/07 11:18:18;;;;;;;2.22;1.50;;;;;;;27.91;30.14;99973.75;5090979;28;20048;-40
2024/04/07 11:20:44;;;;;;;2.35;1.30;;;;;;;28.10;29.86;99970.78;5090550;28;20020;-40
2024/04/07 11:23:10;;;;;;;2.08;1.33;;;;;;;28.65;28.64;99962.94;5090842;28;20024;-39
2024/04/07 11:25:37;;;;;;;2.20;1.50;;;;;;;28.24;29.67;99963.28;5090505;28;20461;-38
2024/04/07 11:28:04;;;;;;;2.28;1.50;;;;;;;29.32;28.55;99943.63;5090665;28;20081;-42
2024/04/07 11:30:37;;;;;;;2.65;1.35;;;;;;;28.97;28.28;99936.22;5090348;28;20106;-39
2024/04/07 11:33:07;;;;;;;5.32;1.20;;;;;;;28.97;29.06;99935.41;5090403;28;20022;-41